Time,TemperatureF,DewpointF,PressureIn,WindDirection,WindDirectionDegrees,WindSpeedMPH,WindSpeedGustMPH,Humidity,HourlyPrecipIn,Conditions,Clouds,dailyrainin,SolarRadiationWatts/m^2,SoftwareType,DateUTC
2013-07-22 00:11:00,65.0,48.0,-100.00,South,169,2.0,7.0,54,0.00,,,0.08,0.000000,,2013-07-22 06:11:00,
2013-07-22 00:22:00,65.0,48.0,-100.00,South,169,2.0,7.0,54,0.00,,,0.08,0.000000,,2013-07-22 06:22:00,
2013-07-22 00:33:00,65.0,48.0,-100.00,South,169,2.0,7.0,54,0.00,,,0.08,0.000000,,2013-07-22 06:33:00,
2013-07-22 00:43:00,65.0,48.0,-100.00,South,169,2.0,7.0,54,0.00,,,0.08,0.000000,,2013-07-22 06:43:00,
2013-07-22 01:12:00,64.0,48.0,-100.00,SE,136,2.0,6.0,56,0.00,,,0.08,0.000000,,2013-07-22 07:12:00,
2013-07-22 01:22:00,64.0,48.0,-100.00,SE,136,2.0,6.0,56,0.00,,,0.08,0.000000,,2013-07-22 07:22:00,
2013-07-22 01:33:00,64.0,48.0,-100.00,SE,136,2.0,6.0,56,0.00,,,0.08,0.000000,,2013-07-22 07:33:00,
2013-07-22 01:43:00,64.0,48.0,-100.00,SE,136,2.0,6.0,56,0.00,,,0.08,0.000000,,2013-07-22 07:43:00,
2013-07-22 02:11:00,65.0,50.0,-100.00,East,87,2.0,4.0,58,0.00,,,0.08,0.000000,,2013-07-22 08:11:00,
2013-07-22 02:22:00,65.0,50.0,-100.00,East,87,2.0,4.0,58,0.00,,,0.08,0.000000,,2013-07-22 08:22:00,
2013-07-22 02:32:00,65.0,50.0,-100.00,East,87,2.0,4.0,58,0.00,,,0.08,0.000000,,2013-07-22 08:32:00,
2013-07-22 02:43:00,65.0,50.0,-100.00,East,87,2.0,4.0,58,0.00,,,0.08,0.000000,,2013-07-22 08:43:00,
2013-07-22 03:11:00,64.0,48.0,-100.00,South,185,2.0,8.0,57,0.00,,,0.08,0.000000,,2013-07-22 09:11:00,
2013-07-22 03:22:00,64.0,48.0,-100.00,South,185,2.0,8.0,57,0.00,,,0.08,0.000000,,2013-07-22 09:22:00,
2013-07-22 03:33:00,64.0,48.0,-100.00,South,185,2.0,8.0,57,0.00,,,0.08,0.000000,,2013-07-22 09:33:00,
2013-07-22 03:42:00,64.0,48.0,-100.00,South,185,2.0,8.0,57,0.00,,,0.08,0.000000,,2013-07-22 09:42:00,
2013-07-22 04:11:00,62.0,47.0,-100.00,East,89,2.0,3.0,59,0.00,,,0.08,0.000000,,2013-07-22 10:11:00,
2013-07-22 04:22:00,62.0,47.0,-100.00,East,89,2.0,3.0,59,0.00,,,0.08,0.000000,,2013-07-22 10:22:00,
2013-07-22 04:32:00,62.0,47.0,-100.00,East,89,2.0,3.0,59,0.00,,,0.08,0.000000,,2013-07-22 10:32:00,
2013-07-22 04:43:00,62.0,47.0,-100.00,East,89,2.0,3.0,59,0.00,,,0.08,0.000000,,2013-07-22 10:43:00,
2013-07-22 05:11:00,61.0,47.0,-100.00,ENE,64,3.0,4.0,60,0.00,,,0.08,0.000000,,2013-07-22 11:11:00,
2013-07-22 05:23:00,61.0,47.0,-100.00,ENE,64,3.0,4.0,60,0.00,,,0.08,0.000000,,2013-07-22 11:23:00,
2013-07-22 05:32:00,61.0,47.0,-100.00,ENE,64,3.0,4.0,60,0.00,,,0.08,0.000000,,2013-07-22 11:32:00,
2013-07-22 05:43:00,61.0,47.0,-100.00,ENE,64,3.0,4.0,60,0.00,,,0.08,0.000000,,2013-07-22 11:43:00,
2013-07-22 06:11:00,62.0,49.0,-100.00,East,80,3.0,4.0,62,0.00,,,0.08,0.000000,,2013-07-22 12:11:00,
2013-07-22 06:22:00,62.0,49.0,-100.00,East,80,3.0,4.0,62,0.00,,,0.08,0.000000,,2013-07-22 12:22:00,
2013-07-22 07:11:00,62.0,47.0,-100.00,ENE,63,3.0,4.0,59,0.00,,,0.08,0.000000,,2013-07-22 13:11:00,
2013-07-22 07:22:00,62.0,47.0,-100.00,ENE,63,3.0,4.0,59,0.00,,,0.08,0.000000,,2013-07-22 13:22:00,
2013-07-22 07:32:00,62.0,47.0,-100.00,ENE,63,3.0,4.0,59,0.00,,,0.08,0.000000,,2013-07-22 13:32:00,
2013-07-22 07:43:00,62.0,47.0,-100.00,ENE,63,3.0,4.0,59,0.00,,,0.08,0.000000,,2013-07-22 13:43:00,
2013-07-22 09:33:00,77.0,50.0,-100.00,East,85,1.0,4.0,39,0.00,,,0.08,280.000000,,2013-07-22 15:33:00,
2013-07-22 09:43:00,77.0,50.0,-100.00,East,85,1.0,4.0,39,0.00,,,0.08,280.000000,,2013-07-22 15:43:00,
2013-07-22 11:11:00,80.0,48.0,-100.00,SSE,158,4.0,11.0,33,-99.99,,,0.08,753.000000,,2013-07-22 17:11:00,
2013-07-22 11:23:00,80.0,48.0,-100.00,SSE,158,4.0,11.0,33,-99.99,,,0.08,753.000000,,2013-07-22 17:23:00,
2013-07-22 11:32:00,80.0,48.0,-100.00,SSE,158,4.0,11.0,33,-99.99,,,0.08,753.000000,,2013-07-22 17:32:00,
2013-07-22 11:43:00,80.0,48.0,-100.00,SSE,158,4.0,11.0,33,-99.99,,,0.08,753.000000,,2013-07-22 17:43:00,
2013-07-22 11:44:00,86.0,48.0,-100.00,NW,319,6.0,15.0,27,0.00,,,0.08,816.000000,,2013-07-22 17:44:00,
2013-07-22 12:35:00,86.0,48.0,-100.00,NW,319,6.0,15.0,27,0.00,,,0.08,816.000000,,2013-07-22 18:35:00,
2013-07-22 12:44:00,88.0,46.0,-100.00,WNW,301,8.0,15.0,23,0.00,,,0.08,1168.000000,,2013-07-22 18:44:00,
2013-07-22 13:23:00,88.0,46.0,-100.00,WNW,301,8.0,15.0,23,0.00,,,0.08,1168.000000,,2013-07-22 19:23:00,
2013-07-22 13:35:00,88.0,46.0,-100.00,WNW,301,8.0,15.0,23,0.00,,,0.08,1168.000000,,2013-07-22 19:35:00,
2013-07-22 14:16:00,90.0,46.0,-100.00,West,262,7.0,16.0,22,0.00,,,0.08,1250.000000,,2013-07-22 20:16:00,
2013-07-22 14:22:00,90.0,46.0,-100.00,West,262,7.0,16.0,22,0.00,,,0.08,1250.000000,,2013-07-22 20:22:00,
2013-07-22 14:32:00,90.0,46.0,-100.00,West,262,7.0,16.0,22,0.00,,,0.08,1250.000000,,2013-07-22 20:32:00,
2013-07-22 14:43:00,90.0,46.0,-100.00,West,262,7.0,16.0,22,0.00,,,0.08,1250.000000,,2013-07-22 20:43:00,
2013-07-22 15:12:00,92.0,44.0,-100.00,WNW,296,6.0,18.0,19,0.00,,,0.08,1263.000000,,2013-07-22 21:12:00,
2013-07-22 15:22:00,92.0,44.0,-100.00,WNW,296,6.0,18.0,19,0.00,,,0.08,1263.000000,,2013-07-22 21:22:00,
2013-07-22 15:32:00,92.0,44.0,-100.00,WNW,296,6.0,18.0,19,0.00,,,0.08,1263.000000,,2013-07-22 21:32:00,
2013-07-22 15:43:00,92.0,44.0,-100.00,WNW,296,6.0,18.0,19,0.00,,,0.08,1263.000000,,2013-07-22 21:43:00,
2013-07-22 16:11:00,94.0,41.0,-100.00,WSW,258,8.0,19.0,16,0.00,,,0.08,1215.000000,,2013-07-22 22:11:00,
2013-07-22 16:22:00,94.0,41.0,-100.00,WSW,258,8.0,19.0,16,0.00,,,0.08,1215.000000,,2013-07-22 22:22:00,
2013-07-22 16:32:00,94.0,41.0,-100.00,WSW,258,8.0,19.0,16,0.00,,,0.08,1215.000000,,2013-07-22 22:32:00,
2013-07-22 16:43:00,94.0,41.0,-100.00,WSW,258,8.0,19.0,16,0.00,,,0.08,1215.000000,,2013-07-22 22:43:00,
2013-07-22 17:11:00,92.0,38.0,-100.00,NE,43,5.0,18.0,15,0.00,,,0.08,1109.000000,,2013-07-22 23:11:00,
2013-07-22 17:22:00,92.0,38.0,-100.00,NE,43,5.0,18.0,15,0.00,,,0.08,1109.000000,,2013-07-22 23:22:00,
2013-07-22 17:32:00,92.0,38.0,-100.00,NE,43,5.0,18.0,15,0.00,,,0.08,1109.000000,,2013-07-22 23:32:00,
2013-07-22 17:42:00,92.0,38.0,-100.00,NE,43,5.0,18.0,15,0.00,,,0.08,1109.000000,,2013-07-22 23:42:00,
2013-07-22 20:02:00,83.0,31.0,-100.00,SW,222,2.0,27.0,15,0.00,,,0.00,57.000000,,2013-07-23 02:02:00,
2013-07-22 20:22:00,83.0,31.0,-100.00,SW,222,2.0,27.0,15,0.00,,,0.00,57.000000,,2013-07-23 02:22:00,
2013-07-22 20:33:00,83.0,31.0,-100.00,SW,222,2.0,27.0,15,0.00,,,0.00,57.000000,,2013-07-23 02:33:00,
2013-07-22 20:43:00,83.0,31.0,-100.00,SW,222,2.0,27.0,15,0.00,,,0.00,57.000000,,2013-07-23 02:43:00,
2013-07-22 21:01:00,78.0,40.0,-100.00,South,180,1.0,13.0,26,0.00,,,0.00,43.000000,,2013-07-23 03:01:00,
2013-07-22 21:11:00,78.0,40.0,-100.00,South,180,1.0,13.0,26,0.00,,,0.00,43.000000,,2013-07-23 03:11:00,
2013-07-22 21:22:00,78.0,40.0,-100.00,South,180,1.0,13.0,26,0.00,,,0.00,43.000000,,2013-07-23 03:22:00,
2013-07-22 21:33:00,78.0,40.0,-100.00,South,180,1.0,13.0,26,0.00,,,0.00,43.000000,,2013-07-23 03:33:00,
2013-07-22 21:43:00,78.0,40.0,-100.00,South,180,1.0,13.0,26,0.00,,,0.00,43.000000,,2013-07-23 03:43:00,
2013-07-22 22:01:00,79.0,36.0,-100.00,West,277,3.0,16.0,21,0.00,,,0.00,4.000000,,2013-07-23 04:01:00,
2013-07-22 22:11:00,79.0,36.0,-100.00,West,277,3.0,16.0,21,0.00,,,0.00,4.000000,,2013-07-23 04:11:00,
2013-07-22 22:22:00,79.0,36.0,-100.00,West,277,3.0,16.0,21,0.00,,,0.00,4.000000,,2013-07-23 04:22:00,
2013-07-22 22:32:00,79.0,36.0,-100.00,West,277,3.0,16.0,21,0.00,,,0.00,4.000000,,2013-07-23 04:32:00,
2013-07-22 22:43:00,79.0,36.0,-100.00,West,277,3.0,16.0,21,0.00,,,0.00,4.000000,,2013-07-23 04:43:00,
2013-07-22 23:11:00,76.0,38.0,-100.00,East,80,3.0,7.0,25,0.00,,,0.00,0.000000,,2013-07-23 05:11:00,
2013-07-22 23:22:00,76.0,38.0,-100.00,East,80,3.0,7.0,25,0.00,,,0.00,0.000000,,2013-07-23 05:22:00,
2013-07-22 23:33:00,76.0,38.0,-100.00,East,80,3.0,7.0,25,0.00,,,0.00,0.000000,,2013-07-23 05:33:00,
2013-07-22 23:43:00,76.0,38.0,-100.00,East,80,3.0,7.0,25,0.00,,,0.00,0.000000,,2013-07-23 05:43:00,